Pagina principale
METAR-TAF:

METAR-TAF

Aeroporti :

Calvinia, Sudafrica

latitudine: 31-28-56S, longitudine: 19-45-43E, altezza: 977 m

Osservazione

Il bollettino è stato emesso 22 minuti fa, alle 06:48 UTC
Vento 8 kt da est
Temperature 12°C
Umidità 35%
Pressione 1027 hPa
Visibilità 10 km o più
nessuna nube inferiore a 1500 m e nessun cumulonembo

METAR: FACV 180648Z 09008KT CAVOK 12/M03 Q1027

Ora: 09:10 (07:10 UTC)


TAF: mancante

Osservazioni e previsioni meteorologiche di più di 4000 aeroporti (messaggi METAR e TAF).

Le stazioni disponibili sono rappresentate dai dischi gialli e rossi sulla carta.

Puntare il mouse per vedere il nome della stazione.

Clicca sopra per visualizzare le osservazioni e previsioni meteorologiche.

Per cambiare la mappa : fare clic sui pulsanti verdi con una croce nera per ingrandire, il pulsante verde con un trattino per diminuire, o sulla freccia verde per le mappe adiacenti.


METAR-TAF: